createdAt,value
2022-10-22T00:01:55.063Z,2.88
2022-10-22T00:07:03.095Z,3.50
2022-10-22T00:12:09.129Z,3.30
2022-10-22T00:17:14.606Z,3.08
2022-10-22T00:22:22.649Z,2.80
2022-10-22T00:27:28.063Z,3.00
2022-10-22T00:32:37.628Z,3.17
2022-10-22T00:37:46.006Z,3.30
2022-10-22T00:42:51.586Z,2.80
2022-10-22T00:48:01.201Z,3.03
2022-10-22T00:53:13.377Z,3.30
2022-10-22T00:58:24.529Z,2.50
2022-10-22T01:03:30.800Z,3.50
2022-10-22T01:08:49.271Z,2.80
2022-10-22T01:14:01.747Z,3.08
2022-10-22T01:19:25.335Z,2.90
2022-10-22T01:24:45.034Z,2.80
2022-10-22T01:29:55.678Z,2.90
2022-10-22T01:35:06.982Z,3.15
2022-10-22T01:40:18.140Z,2.70
2022-10-22T01:45:26.393Z,3.20
2022-10-22T01:50:43.972Z,3.77
2022-10-22T01:56:03.025Z,3.03
2022-10-22T02:01:18.584Z,2.97
2022-10-22T02:06:28.662Z,3.20
2022-10-22T02:11:34.677Z,3.42
2022-10-22T02:16:45.664Z,2.78
2022-10-22T02:21:51.316Z,3.10
2022-10-22T02:27:06.100Z,2.80
2022-10-22T02:32:19.119Z,3.25
2022-10-22T02:37:25.750Z,2.93
2022-10-22T02:42:34.843Z,3.15
2022-10-22T02:47:42.905Z,2.93
2022-10-22T02:52:48.532Z,3.33
2022-10-22T02:57:54.480Z,3.35
2022-10-22T03:03:02.718Z,3.20
2022-10-22T03:08:08.171Z,3.50
2022-10-22T03:13:15.320Z,3.70
2022-10-22T03:18:25.901Z,3.60
2022-10-22T03:23:31.150Z,3.40
2022-10-22T03:28:37.730Z,4.30
2022-10-22T03:33:45.776Z,3.60
2022-10-22T03:38:51.300Z,3.22
2022-10-22T03:43:59.031Z,3.55
2022-10-22T03:49:07.047Z,3.70
2022-10-22T03:54:12.720Z,3.88
2022-10-22T03:59:18.800Z,3.53
2022-10-22T04:04:26.618Z,3.23
2022-10-22T04:09:34.403Z,3.83
2022-10-22T04:14:41.660Z,3.80
2022-10-22T04:19:49.469Z,3.77
2022-10-22T04:24:55.152Z,3.63
2022-10-22T04:30:00.443Z,4.13
2022-10-22T04:35:09.416Z,4.03
2022-10-22T04:40:15.880Z,4.57
2022-10-22T04:45:21.769Z,4.70
2022-10-22T04:50:30.988Z,5.07
2022-10-22T04:55:36.591Z,4.80
2022-10-22T05:00:42.092Z,4.40
2022-10-22T05:05:50.099Z,3.97
2022-10-22T05:10:55.471Z,5.82
2022-10-22T05:16:04.532Z,4.90
2022-10-22T05:21:16.063Z,4.97
2022-10-22T05:26:26.338Z,4.20
2022-10-22T05:31:33.530Z,4.67
2022-10-22T05:36:44.976Z,4.72
2022-10-22T05:41:51.580Z,4.33
2022-10-22T05:46:57.338Z,4.03
2022-10-22T05:52:06.658Z,4.50
2022-10-22T05:57:12.181Z,4.33
2022-10-22T06:02:17.643Z,4.53
2022-10-22T06:07:25.983Z,4.78
2022-10-22T06:12:31.269Z,4.53
2022-10-22T06:17:36.669Z,4.63
2022-10-22T06:22:44.873Z,5.05
2022-10-22T06:27:53.024Z,4.93
2022-10-22T06:32:59.440Z,4.97
2022-10-22T06:38:07.524Z,4.65
2022-10-22T06:43:13.368Z,4.90
2022-10-22T06:48:21.313Z,4.20
2022-10-22T06:53:29.482Z,4.60
2022-10-22T06:58:35.007Z,4.70
2022-10-22T07:03:41.301Z,5.20
2022-10-22T07:08:49.894Z,4.32
2022-10-22T07:13:57.103Z,5.00
2022-10-22T07:19:02.754Z,3.95
2022-10-22T07:24:11.804Z,3.57
2022-10-22T07:29:18.691Z,4.13
2022-10-22T07:34:24.434Z,4.05
2022-10-22T07:39:32.708Z,3.67
2022-10-22T07:44:43.282Z,3.77
2022-10-22T07:49:48.681Z,3.95
2022-10-22T07:54:57.265Z,3.57
2022-10-22T08:00:02.742Z,3.60
2022-10-22T08:05:16.995Z,3.63
2022-10-22T08:10:25.230Z,3.47
2022-10-22T08:15:31.518Z,5.90
2022-10-22T08:20:37.735Z,4.38
2022-10-22T08:25:45.980Z,3.43
2022-10-22T08:30:53.327Z,3.37
2022-10-22T08:36:01.909Z,3.33
2022-10-22T08:41:15.222Z,2.90
2022-10-22T08:46:33.807Z,2.60
2022-10-22T08:51:42.251Z,2.88
2022-10-22T08:56:57.036Z,2.30
2022-10-22T09:02:03.221Z,2.70
2022-10-22T09:07:08.540Z,2.35
2022-10-22T09:12:20.347Z,2.83
2022-10-22T09:17:36.790Z,2.30
2022-10-22T09:22:51.059Z,2.53
2022-10-22T09:28:01.191Z,2.10
2022-10-22T09:33:15.386Z,1.70
2022-10-22T09:38:33.938Z,2.03
2022-10-22T09:43:42.073Z,1.40
2022-10-22T09:49:00.894Z,1.50
2022-10-22T09:54:20.957Z,1.70
2022-10-22T09:59:42.679Z,1.57
2022-10-22T10:04:51.871Z,1.33
2022-10-22T10:09:57.861Z,1.42
2022-10-22T10:15:14.793Z,1.83
2022-10-22T10:20:33.046Z,1.33
2022-10-22T10:25:51.125Z,1.60
2022-10-22T10:31:09.914Z,1.57
2022-10-22T10:36:23.001Z,1.37
2022-10-22T10:41:38.896Z,1.30
2022-10-22T10:46:55.285Z,1.20
2022-10-22T10:52:08.507Z,1.00
2022-10-22T10:57:25.129Z,0.93
2022-10-22T11:03:20.511Z,0.90
2022-10-22T11:08:29.938Z,0.90
2022-10-22T11:13:39.894Z,0.82
2022-10-22T11:18:52.618Z,0.98
2022-10-22T11:24:06.728Z,1.17
2022-10-22T11:29:16.103Z,0.85
2022-10-22T11:34:34.115Z,1.25
2022-10-22T11:39:45.780Z,0.90
2022-10-22T11:45:01.945Z,1.08
2022-10-22T11:50:26.113Z,0.90
2022-10-22T11:55:36.214Z,0.80
2022-10-22T12:00:49.421Z,0.88
2022-10-22T12:06:21.069Z,1.05
2022-10-22T12:11:30.208Z,0.90
2022-10-22T12:16:55.676Z,0.85
2022-10-22T12:22:16.797Z,0.90
2022-10-22T12:27:24.312Z,0.90
2022-10-22T12:32:41.481Z,0.80
2022-10-22T12:38:01.477Z,0.75
2022-10-22T12:43:17.093Z,0.90
2022-10-22T12:48:26.731Z,0.70
2022-10-22T12:53:37.924Z,1.00
2022-10-22T12:58:48.011Z,0.87
2022-10-22T13:04:22.209Z,0.70
2022-10-22T13:09:44.725Z,1.38
2022-10-22T13:14:50.296Z,0.47
2022-10-22T13:20:07.788Z,0.70
2022-10-22T13:25:29.409Z,0.80
2022-10-22T13:30:39.823Z,1.20
2022-10-22T13:35:45.553Z,1.17
2022-10-22T13:40:54.754Z,0.65
2022-10-22T13:46:02.384Z,1.40
2022-10-22T13:51:10.803Z,1.30
2022-10-22T13:56:21.303Z,1.10
2022-10-22T14:01:28.938Z,0.70
2022-10-22T14:11:45.352Z,1.30
2022-10-22T14:16:50.851Z,0.80
2022-10-22T14:21:56.518Z,0.90
2022-10-22T14:27:04.392Z,0.73
2022-10-22T14:32:15.711Z,1.00
2022-10-22T14:37:24.943Z,1.15
2022-10-22T14:42:33.418Z,1.42
2022-10-22T14:47:38.839Z,0.60
2022-10-22T14:52:45.541Z,0.50
2022-10-22T14:57:53.836Z,0.90
2022-10-22T15:03:03.283Z,0.83
2022-10-22T15:08:10.386Z,0.80
2022-10-22T15:18:43.608Z,0.80
2022-10-22T15:23:49.427Z,0.97
2022-10-22T15:28:58.232Z,1.02
2022-10-22T15:34:05.885Z,0.80
2022-10-22T15:39:13.113Z,1.33
2022-10-22T15:44:22.827Z,0.93
2022-10-22T15:49:30.614Z,1.20
2022-10-22T15:54:36.668Z,1.10
2022-10-22T15:59:44.807Z,1.33
2022-10-22T16:04:50.319Z,2.13
2022-10-22T16:10:00.371Z,2.00
2022-10-22T16:15:11.773Z,2.00
2022-10-22T16:20:17.208Z,2.33
2022-10-22T16:25:27.967Z,3.33
2022-10-22T16:30:39.082Z,5.68
2022-10-22T16:35:45.342Z,3.40
2022-10-22T16:40:53.257Z,2.53
2022-10-22T16:46:05.525Z,2.58
2022-10-22T16:51:12.253Z,3.20
2022-10-22T16:56:19.314Z,3.40
2022-10-22T17:01:30.386Z,3.20
2022-10-22T17:06:36.158Z,2.63
2022-10-22T17:11:42.590Z,2.80
2022-10-22T17:16:54.015Z,2.35
2022-10-22T17:21:59.259Z,2.75
2022-10-22T17:32:32.872Z,3.13
2022-10-22T17:37:39.514Z,3.05
2022-10-22T17:42:45.552Z,2.53
2022-10-22T17:47:54.051Z,3.97
2022-10-22T17:52:59.655Z,3.45
2022-10-22T17:58:05.244Z,5.30
2022-10-22T18:03:14.375Z,5.72
2022-10-22T18:08:21.660Z,6.68
2022-10-22T18:13:27.742Z,6.57
2022-10-22T18:18:37.647Z,6.15
2022-10-22T18:23:43.453Z,5.78
2022-10-22T18:28:49.371Z,4.90
2022-10-22T18:33:59.439Z,5.03
2022-10-22T18:39:06.081Z,5.95
2022-10-22T18:44:14.975Z,11.73
2022-10-22T18:49:23.510Z,6.80
2022-10-22T18:54:29.348Z,6.70
2022-10-22T18:59:34.973Z,6.17
2022-10-22T19:04:42.947Z,6.25
2022-10-22T19:09:48.490Z,4.40
2022-10-22T19:14:53.722Z,4.83
2022-10-22T19:20:01.874Z,6.35
2022-10-22T19:25:11.210Z,4.67
2022-10-22T19:30:19.286Z,4.33
2022-10-22T19:35:28.218Z,4.13
2022-10-22T19:40:33.695Z,3.63
2022-10-22T19:45:42.761Z,3.40
2022-10-22T19:50:51.461Z,4.15
2022-10-22T19:55:56.691Z,4.40
2022-10-22T20:01:10.767Z,5.63
2022-10-22T20:06:20.388Z,6.93
2022-10-22T20:11:29.684Z,5.00
2022-10-22T20:16:36.442Z,3.90
2022-10-22T20:21:45.269Z,3.85
2022-10-22T20:26:50.697Z,3.40
2022-10-22T20:31:55.960Z,3.00
2022-10-22T20:37:04.645Z,3.13
2022-10-22T20:42:10.712Z,3.37
2022-10-22T20:47:16.223Z,3.20
2022-10-22T20:52:24.262Z,2.78
2022-10-22T20:57:29.920Z,3.10
2022-10-22T21:02:35.552Z,3.27
2022-10-22T21:07:44.812Z,2.58
2022-10-22T21:12:50.642Z,2.60
2022-10-22T21:17:56.713Z,2.97
2022-10-22T21:23:04.734Z,3.03
2022-10-22T21:28:11.366Z,2.73
2022-10-22T21:33:17.092Z,3.13
2022-10-22T21:38:26.373Z,3.03
2022-10-22T21:43:32.229Z,3.03
2022-10-22T21:48:40.261Z,2.63
2022-10-22T21:58:57.838Z,3.10
2022-10-22T22:04:04.949Z,3.20
2022-10-22T22:09:16.245Z,2.92
2022-10-22T22:14:22.176Z,3.40
2022-10-22T22:19:27.829Z,2.93
2022-10-22T22:24:43.983Z,2.50
2022-10-22T22:29:56.845Z,2.53
2022-10-22T22:35:05.447Z,3.30
2022-10-22T22:40:15.079Z,2.90
2022-10-22T22:45:20.641Z,2.33
2022-10-22T22:50:27.629Z,2.47
2022-10-22T22:55:36.534Z,2.40
2022-10-22T23:06:07.243Z,2.63
2022-10-22T23:11:16.745Z,2.67
2022-10-22T23:16:26.663Z,2.50
2022-10-22T23:21:35.061Z,2.33
2022-10-22T23:26:44.917Z,2.60
2022-10-22T23:31:52.346Z,2.47
2022-10-22T23:36:58.665Z,2.23
2022-10-22T23:42:07.479Z,2.30
2022-10-22T23:47:12.950Z,2.40
2022-10-22T23:52:18.650Z,2.35
2022-10-22T23:57:26.831Z,2.33
